createdAt,value
2018-05-07T00:02:17.866Z,88.00
2018-05-07T00:04:45.378Z,88.90
2018-05-07T00:07:12.978Z,88.30
2018-05-07T00:09:40.488Z,89.30
2018-05-07T00:12:08.002Z,88.60
2018-05-07T00:14:35.518Z,90.00
2018-05-07T00:17:03.062Z,90.10
2018-05-07T00:19:30.628Z,90.10
2018-05-07T00:21:58.166Z,90.20
2018-05-07T00:24:26.468Z,90.30
2018-05-07T00:26:53.999Z,90.30
2018-05-07T00:29:22.312Z,91.50
2018-05-07T00:31:49.858Z,91.50
2018-05-07T00:34:17.382Z,91.50
2018-05-07T00:36:44.947Z,94.00
2018-05-07T00:39:13.240Z,95.10
2018-05-07T00:41:40.788Z,95.10
2018-05-07T00:44:08.339Z,94.90
2018-05-07T00:46:36.626Z,95.20
2018-05-07T00:49:04.945Z,94.80
2018-05-07T00:51:32.478Z,94.80
2018-05-07T00:54:00.019Z,96.70
2018-05-07T00:56:27.600Z,95.50
2018-05-07T00:58:55.140Z,96.90
2018-05-07T01:01:22.691Z,95.80
2018-05-07T01:03:50.240Z,96.80
2018-05-07T01:06:18.522Z,96.80
2018-05-07T01:08:46.811Z,98.10
2018-05-07T01:11:14.335Z,98.10
2018-05-07T01:13:41.882Z,99.20
2018-05-07T01:16:09.435Z,97.50
2018-05-07T01:18:36.984Z,97.90
2018-05-07T01:21:04.510Z,97.00
2018-05-07T01:23:32.061Z,97.00
2018-05-07T01:25:59.632Z,97.50
2018-05-07T01:28:27.153Z,96.70
2018-05-07T01:30:54.694Z,99.50
2018-05-07T01:33:22.247Z,98.10
2018-05-07T01:35:49.802Z,98.50
2018-05-07T01:38:17.331Z,99.00
2018-05-07T01:40:44.844Z,99.10
2018-05-07T01:43:12.362Z,98.00
2018-05-07T01:45:39.922Z,98.50
2018-05-07T01:48:07.448Z,98.40
2018-05-07T01:50:34.988Z,98.10
2018-05-07T01:53:03.305Z,97.60
2018-05-07T01:55:30.851Z,97.60
2018-05-07T01:57:58.450Z,98.50
2018-05-07T02:00:25.971Z,98.40
2018-05-07T02:02:53.523Z,99.80
2018-05-07T02:05:21.053Z,99.50
2018-05-07T02:07:48.591Z,99.50
2018-05-07T02:10:16.147Z,99.70
2018-05-07T02:12:43.702Z,99.90
2018-05-07T02:15:11.268Z,99.90
2018-05-07T02:17:39.566Z,99.90
2018-05-07T02:20:07.113Z,99.90
2018-05-07T02:22:35.433Z,99.90
2018-05-07T02:25:02.994Z,99.90
2018-05-07T02:27:30.535Z,99.40
2018-05-07T02:29:58.058Z,99.90
2018-05-07T02:32:25.582Z,99.90
2018-05-07T02:34:53.140Z,99.90
2018-05-07T02:37:20.695Z,99.90
2018-05-07T02:39:48.237Z,99.90
2018-05-07T02:42:15.796Z,99.90
2018-05-07T02:44:43.315Z,99.90
2018-05-07T02:47:10.845Z,99.90
2018-05-07T02:49:38.370Z,99.90
2018-05-07T02:52:05.882Z,99.90
2018-05-07T02:54:33.475Z,99.90
2018-05-07T02:57:01.032Z,99.90
2018-05-07T02:59:28.583Z,99.90
2018-05-07T03:01:56.115Z,99.90
2018-05-07T03:04:23.636Z,99.90
2018-05-07T03:06:51.201Z,99.90
2018-05-07T03:09:18.748Z,99.90
2018-05-07T03:11:46.289Z,99.90
2018-05-07T03:14:13.826Z,99.90
2018-05-07T03:16:42.109Z,99.90
2018-05-07T03:19:10.386Z,99.90
2018-05-07T03:21:38.700Z,99.90
2018-05-07T03:24:06.252Z,99.90
2018-05-07T03:26:33.790Z,99.90
2018-05-07T03:29:02.098Z,99.90
2018-05-07T03:31:29.622Z,99.90
2018-05-07T03:33:57.151Z,99.90
2018-05-07T03:36:24.707Z,99.90
2018-05-07T03:38:52.226Z,99.90
2018-05-07T03:41:20.275Z,99.90
2018-05-07T03:43:47.792Z,99.90
2018-05-07T03:46:15.349Z,99.90
2018-05-07T03:48:42.937Z,99.90
2018-05-07T03:51:11.243Z,99.90
2018-05-07T03:53:38.758Z,99.90
2018-05-07T03:56:06.266Z,99.90
2018-05-07T03:58:33.803Z,99.90
2018-05-07T04:01:01.325Z,99.90
2018-05-07T04:03:28.829Z,99.90
2018-05-07T04:05:56.371Z,99.90
2018-05-07T04:08:24.658Z,99.90
2018-05-07T04:10:53.068Z,99.90
2018-05-07T04:13:20.620Z,99.90
2018-05-07T04:15:48.183Z,99.90
2018-05-07T04:18:27.474Z,99.90
2018-05-07T04:21:06.887Z,99.90
2018-05-07T04:23:46.111Z,99.90
2018-05-07T04:26:13.664Z,99.90
2018-05-07T04:28:41.211Z,99.90
2018-05-07T04:31:08.737Z,99.90
2018-05-07T04:33:36.285Z,99.90
2018-05-07T04:36:03.834Z,99.90
2018-05-07T04:38:31.394Z,99.90
2018-05-07T04:40:59.679Z,99.90
2018-05-07T04:43:27.951Z,99.90
2018-05-07T04:45:56.234Z,99.90
2018-05-07T04:48:23.782Z,99.90
2018-05-07T04:50:52.082Z,99.90
2018-05-07T04:53:19.606Z,99.90
2018-05-07T04:55:47.195Z,99.90
2018-05-07T04:58:14.773Z,99.90
2018-05-07T05:00:42.331Z,99.90
2018-05-07T05:03:09.863Z,99.90
2018-05-07T05:05:38.179Z,99.90
2018-05-07T05:08:05.700Z,99.90
2018-05-07T05:10:33.226Z,99.90
2018-05-07T05:13:00.752Z,99.90
2018-05-07T05:15:30.283Z,99.90
2018-05-07T05:17:57.804Z,99.90
2018-05-07T05:20:25.326Z,99.90
2018-05-07T05:22:53.646Z,99.90
2018-05-07T05:25:21.172Z,99.90
2018-05-07T05:27:48.695Z,99.90
2018-05-07T05:30:16.225Z,99.90
2018-05-07T05:32:43.740Z,99.90
2018-05-07T05:35:11.271Z,99.90
2018-05-07T05:37:38.815Z,99.90
2018-05-07T05:40:06.334Z,99.90
2018-05-07T05:42:33.871Z,99.90
2018-05-07T05:45:01.436Z,99.90
2018-05-07T05:47:28.955Z,99.90
2018-05-07T05:49:56.530Z,99.90
2018-05-07T05:52:24.099Z,99.90
2018-05-07T05:54:52.395Z,99.90
2018-05-07T05:57:19.940Z,99.90
2018-05-07T05:59:47.469Z,99.90
2018-05-07T06:02:15.023Z,99.90
2018-05-07T06:04:44.116Z,99.90
2018-05-07T06:07:11.632Z,99.90
2018-05-07T06:09:39.164Z,99.90
2018-05-07T06:12:07.487Z,99.90
2018-05-07T06:14:35.081Z,99.90
2018-05-07T06:17:02.543Z,99.90
2018-05-07T06:19:30.058Z,99.90
2018-05-07T06:21:57.573Z,99.60
2018-05-07T06:24:25.860Z,98.90
2018-05-07T06:26:54.009Z,99.20
2018-05-07T06:29:21.550Z,98.20
2018-05-07T06:31:49.091Z,98.80
2018-05-07T06:34:16.622Z,99.90
2018-05-07T06:36:44.127Z,99.10
2018-05-07T06:39:11.655Z,98.50
2018-05-07T06:41:39.237Z,98.00
2018-05-07T06:44:06.773Z,97.70
2018-05-07T06:46:34.326Z,97.80
2018-05-07T06:49:01.891Z,97.80
2018-05-07T06:51:29.499Z,96.50
2018-05-07T06:53:57.049Z,96.60
2018-05-07T06:56:24.589Z,95.80
2018-05-07T06:58:52.098Z,95.90
2018-05-07T07:01:19.661Z,91.80
2018-05-07T07:03:47.183Z,90.00
2018-05-07T07:06:14.697Z,88.70
2018-05-07T07:08:43.012Z,86.70
2018-05-07T07:11:10.517Z,86.70
2018-05-07T07:13:38.044Z,84.50
2018-05-07T07:16:05.590Z,84.60
2018-05-07T07:18:33.113Z,83.60
2018-05-07T07:21:00.656Z,83.40
2018-05-07T07:23:28.207Z,84.10
2018-05-07T07:25:55.757Z,83.20
2018-05-07T07:28:23.282Z,82.50
2018-05-07T07:30:50.819Z,81.30
2018-05-07T07:33:18.363Z,80.50
2018-05-07T07:35:45.880Z,80.60
2018-05-07T07:38:14.214Z,80.40
2018-05-07T07:40:41.750Z,80.30
2018-05-07T07:43:09.698Z,78.80
2018-05-07T07:45:37.279Z,79.20
2018-05-07T07:48:04.819Z,81.60
2018-05-07T07:50:33.095Z,78.80
2018-05-07T07:53:01.387Z,75.60
2018-05-07T07:55:28.931Z,75.60
2018-05-07T07:57:56.482Z,77.30
2018-05-07T08:00:24.054Z,78.20
2018-05-07T08:02:51.564Z,77.30
2018-05-07T08:05:19.079Z,75.40
2018-05-07T08:07:46.607Z,77.00
2018-05-07T08:10:14.133Z,76.50
2018-05-07T08:12:41.684Z,76.60
2018-05-07T08:15:09.194Z,74.10
2018-05-07T08:17:36.730Z,75.10
2018-05-07T08:20:04.240Z,75.20
2018-05-07T08:22:31.739Z,76.40
2018-05-07T08:24:59.243Z,74.20
2018-05-07T08:27:26.749Z,75.20
2018-05-07T08:29:54.244Z,76.00
2018-05-07T08:32:22.511Z,73.40
2018-05-07T08:34:50.814Z,72.70
2018-05-07T08:37:18.340Z,72.50
2018-05-07T08:39:45.871Z,71.20
2018-05-07T08:42:13.416Z,70.30
2018-05-07T08:44:40.957Z,72.30
2018-05-07T08:47:08.490Z,68.80
2018-05-07T08:49:36.001Z,73.10
2018-05-07T08:52:03.537Z,72.00
2018-05-07T08:54:31.071Z,71.00
2018-05-07T08:56:59.332Z,67.50
2018-05-07T08:59:27.601Z,67.40
2018-05-07T09:01:55.922Z,70.90
2018-05-07T09:04:23.454Z,70.80
2018-05-07T09:06:50.965Z,69.60
2018-05-07T09:09:18.475Z,67.30
2018-05-07T09:11:46.001Z,68.40
2018-05-07T09:14:13.517Z,67.40
2018-05-07T09:16:41.018Z,67.50
2018-05-07T09:19:09.303Z,67.60
2018-05-07T09:21:37.613Z,63.20
2018-05-07T09:24:05.158Z,63.20
2018-05-07T09:26:32.662Z,65.70
2018-05-07T09:29:00.205Z,66.40
2018-05-07T09:31:27.786Z,67.50
2018-05-07T09:33:55.311Z,67.00
2018-05-07T09:36:22.854Z,63.40
2018-05-07T09:38:50.387Z,64.90
2018-05-07T09:41:17.918Z,65.00
2018-05-07T09:43:45.425Z,62.10
2018-05-07T09:46:13.691Z,65.50
2018-05-07T09:48:41.205Z,65.50
2018-05-07T09:51:08.698Z,69.10
2018-05-07T09:53:36.308Z,60.80
2018-05-07T09:56:03.843Z,64.50
2018-05-07T09:58:31.377Z,63.00
2018-05-07T10:00:58.890Z,63.70
2018-05-07T10:03:26.392Z,59.80
2018-05-07T10:05:53.927Z,60.70
2018-05-07T10:08:21.457Z,60.90
2018-05-07T10:10:48.989Z,60.70
2018-05-07T10:13:16.501Z,58.70
2018-05-07T10:15:44.020Z,59.00
2018-05-07T10:18:11.565Z,59.40
2018-05-07T10:23:13.037Z,69.10
2018-05-07T10:25:40.579Z,59.50
2018-05-07T10:28:08.112Z,61.20
2018-05-07T10:30:35.706Z,58.40
2018-05-07T10:33:03.217Z,58.50
2018-05-07T10:35:30.728Z,64.10
2018-05-07T10:37:58.240Z,59.80
2018-05-07T10:40:25.859Z,61.10
2018-05-07T10:42:53.326Z,58.00
2018-05-07T10:45:20.837Z,58.30
2018-05-07T10:47:49.878Z,60.70
2018-05-07T10:50:17.381Z,60.70
2018-05-07T10:52:44.952Z,57.10
2018-05-07T10:55:13.250Z,59.90
2018-05-07T10:57:40.790Z,59.80
2018-05-07T11:00:08.298Z,56.80
2018-05-07T11:02:35.830Z,57.80
2018-05-07T11:05:03.341Z,55.50
2018-05-07T11:07:30.933Z,55.20
2018-05-07T11:09:58.381Z,60.80
2018-05-07T11:12:26.669Z,55.60
2018-05-07T11:14:54.931Z,56.30
2018-05-07T11:17:22.465Z,56.30
2018-05-07T11:19:50.039Z,55.90
2018-05-07T11:22:17.515Z,54.60
2018-05-07T11:24:45.828Z,57.70
2018-05-07T11:27:13.351Z,57.70
2018-05-07T11:29:40.874Z,56.40
2018-05-07T11:32:08.391Z,55.60
2018-05-07T11:34:35.910Z,55.20
2018-05-07T11:37:03.436Z,54.20
2018-05-07T11:39:30.978Z,59.10
2018-05-07T11:41:58.504Z,54.30
2018-05-07T11:44:26.006Z,54.40
2018-05-07T11:46:53.541Z,53.90
2018-05-07T11:49:21.030Z,55.50
2018-05-07T11:51:48.540Z,53.30
2018-05-07T11:54:16.061Z,51.80
2018-05-07T11:56:43.589Z,56.20
2018-05-07T11:59:11.125Z,54.20
2018-05-07T12:01:38.660Z,53.70
2018-05-07T12:04:06.927Z,51.80
2018-05-07T12:06:34.443Z,51.80
2018-05-07T12:09:02.080Z,52.10
2018-05-07T12:11:29.544Z,53.40
2018-05-07T12:13:57.076Z,52.00
2018-05-07T12:16:24.662Z,52.90
2018-05-07T12:18:52.177Z,55.30
2018-05-07T12:21:19.682Z,56.00
2018-05-07T12:23:47.197Z,54.00
2018-05-07T12:26:14.735Z,51.80
2018-05-07T12:28:42.244Z,54.20
2018-05-07T12:31:09.868Z,56.20
2018-05-07T12:33:37.318Z,49.60
2018-05-07T12:36:04.913Z,49.40
2018-05-07T12:38:32.600Z,51.40
2018-05-07T12:41:00.110Z,53.90
2018-05-07T12:43:27.632Z,50.80
2018-05-07T12:45:55.148Z,53.60
2018-05-07T12:48:22.684Z,49.60
2018-05-07T12:50:50.212Z,49.40
2018-05-07T12:53:17.767Z,48.70
2018-05-07T12:55:45.302Z,46.50
2018-05-07T12:58:12.842Z,46.30
2018-05-07T13:00:41.114Z,48.20
2018-05-07T13:03:08.661Z,48.20
2018-05-07T13:05:36.168Z,49.40
2018-05-07T13:08:03.675Z,52.20
2018-05-07T13:10:31.994Z,49.00
2018-05-07T13:12:59.521Z,49.00
2018-05-07T13:15:27.063Z,50.60
2018-05-07T13:17:55.396Z,47.90
2018-05-07T13:20:22.917Z,47.90
2018-05-07T13:22:50.430Z,50.00
2018-05-07T13:25:17.970Z,50.40
2018-05-07T13:27:45.489Z,53.30
2018-05-07T13:30:13.018Z,49.50
2018-05-07T13:32:40.552Z,48.10
2018-05-07T13:35:08.076Z,50.50
2018-05-07T13:37:35.620Z,52.20
2018-05-07T13:40:03.951Z,54.30
2018-05-07T13:42:31.462Z,54.30
2018-05-07T13:44:59.003Z,59.30
2018-05-07T13:47:27.308Z,50.50
2018-05-07T13:49:54.842Z,50.50
2018-05-07T13:52:23.165Z,49.70
2018-05-07T13:54:50.692Z,49.60
2018-05-07T13:57:18.996Z,50.00
2018-05-07T13:59:46.540Z,49.90
2018-05-07T14:02:14.055Z,49.10
2018-05-07T14:04:41.611Z,50.10
2018-05-07T14:07:09.176Z,49.50
2018-05-07T14:09:36.722Z,48.80
2018-05-07T14:12:04.283Z,49.40
2018-05-07T14:14:31.840Z,50.90
2018-05-07T14:16:59.343Z,49.10
2018-05-07T14:19:26.855Z,50.50
2018-05-07T14:21:54.374Z,49.70
2018-05-07T14:24:21.913Z,50.40
2018-05-07T14:26:49.462Z,49.70
2018-05-07T14:29:17.748Z,52.90
2018-05-07T14:31:46.218Z,52.70
2018-05-07T14:34:14.540Z,51.70
2018-05-07T14:36:42.085Z,51.70
2018-05-07T14:39:09.644Z,49.90
2018-05-07T14:41:37.235Z,51.60
2018-05-07T14:44:04.755Z,50.70
2018-05-07T14:46:32.267Z,50.50
2018-05-07T14:48:59.804Z,52.10
2018-05-07T14:51:27.346Z,53.20
2018-05-07T14:53:54.887Z,49.10
2018-05-07T14:56:22.423Z,48.30
2018-05-07T14:58:50.752Z,49.70
2018-05-07T15:01:18.262Z,49.70
2018-05-07T15:03:45.814Z,50.10
2018-05-07T15:06:14.145Z,50.90
2018-05-07T15:08:41.697Z,50.80
2018-05-07T15:11:09.213Z,48.50
2018-05-07T15:13:37.558Z,49.00
2018-05-07T15:16:05.035Z,49.00
2018-05-07T15:18:32.539Z,48.10
2018-05-07T15:21:00.058Z,48.80
2018-05-07T15:23:27.610Z,48.10
2018-05-07T15:25:55.116Z,48.00
2018-05-07T15:30:56.594Z,49.10
2018-05-07T15:33:24.158Z,48.40
2018-05-07T15:35:51.669Z,49.60
2018-05-07T15:38:19.213Z,48.70
2018-05-07T15:40:47.595Z,47.20
2018-05-07T15:45:49.802Z,48.90
2018-05-07T15:48:18.083Z,50.80
2018-05-07T15:50:45.606Z,50.20
2018-05-07T15:53:13.122Z,49.00
2018-05-07T15:55:40.631Z,48.40
2018-05-07T15:58:08.159Z,53.00
2018-05-07T16:00:35.706Z,48.70
2018-05-07T16:03:03.343Z,49.20
2018-05-07T16:05:30.804Z,48.80
2018-05-07T16:07:58.305Z,53.10
2018-05-07T16:10:25.848Z,48.30
2018-05-07T16:12:53.364Z,52.60
2018-05-07T16:15:20.901Z,49.00
2018-05-07T16:17:48.414Z,49.20
2018-05-07T16:20:16.007Z,49.30
2018-05-07T16:22:43.524Z,49.50
2018-05-07T16:25:11.069Z,48.30
2018-05-07T16:27:38.635Z,49.70
2018-05-07T16:30:06.184Z,49.20
2018-05-07T16:32:33.699Z,47.60
2018-05-07T16:35:01.227Z,46.30
2018-05-07T16:37:28.755Z,48.20
2018-05-07T16:39:56.355Z,46.60
2018-05-07T16:42:23.864Z,47.40
2018-05-07T16:44:51.411Z,46.40
2018-05-07T16:47:19.727Z,46.70
2018-05-07T16:49:47.283Z,46.80
2018-05-07T16:52:14.833Z,50.10
2018-05-07T16:54:42.388Z,50.60
2018-05-07T16:57:09.940Z,48.50
2018-05-07T16:59:38.248Z,48.20
2018-05-07T17:02:05.771Z,48.10
2018-05-07T17:04:34.099Z,47.60
2018-05-07T17:07:01.676Z,47.70
2018-05-07T17:09:29.243Z,48.60
2018-05-07T17:11:56.795Z,47.50
2018-05-07T17:14:24.348Z,48.90
2018-05-07T17:16:51.915Z,48.50
2018-05-07T17:19:19.508Z,46.80
2018-05-07T17:21:47.806Z,48.70
2018-05-07T17:24:15.425Z,48.60
2018-05-07T17:26:42.973Z,48.60
2018-05-07T17:29:10.541Z,48.00
2018-05-07T17:31:38.108Z,47.90
2018-05-07T17:34:05.778Z,48.10
2018-05-07T17:36:34.954Z,49.60
2018-05-07T17:39:02.494Z,49.60
2018-05-07T17:41:30.558Z,49.10
2018-05-07T17:47:09.773Z,48.70
2018-05-07T17:49:38.128Z,48.80
2018-05-07T17:52:05.657Z,48.70
2018-05-07T17:54:33.206Z,48.80
2018-05-07T17:57:00.764Z,49.80
2018-05-07T17:59:28.271Z,50.70
2018-05-07T18:04:29.775Z,51.00
2018-05-07T18:06:57.308Z,52.00
2018-05-07T18:09:24.874Z,52.30
2018-05-07T18:11:53.192Z,56.80
2018-05-07T18:14:20.748Z,56.70
2018-05-07T18:16:48.269Z,58.40
2018-05-07T18:19:16.553Z,60.60
2018-05-07T18:21:44.104Z,60.50
2018-05-07T18:24:11.731Z,60.80
2018-05-07T18:26:39.268Z,61.20
2018-05-07T18:29:06.798Z,62.30
2018-05-07T18:31:34.310Z,62.80
2018-05-07T18:34:01.863Z,63.20
2018-05-07T18:36:29.425Z,63.50
2018-05-07T18:38:56.961Z,64.80
2018-05-07T18:41:24.509Z,64.60
2018-05-07T18:43:52.822Z,65.10
2018-05-07T18:46:20.355Z,65.10
2018-05-07T18:48:47.900Z,65.60
2018-05-07T18:51:15.445Z,66.10
2018-05-07T18:53:42.988Z,69.90
2018-05-07T18:56:11.273Z,72.90
2018-05-07T18:58:38.802Z,72.80
2018-05-07T19:01:07.093Z,78.00
2018-05-07T19:03:34.650Z,78.00
2018-05-07T19:06:02.934Z,78.00
2018-05-07T19:08:31.222Z,76.00
2018-05-07T19:10:58.789Z,75.90
2018-05-07T19:13:26.359Z,76.00
2018-05-07T19:15:53.887Z,76.70
2018-05-07T19:18:21.412Z,77.50
2018-05-07T19:20:48.924Z,80.60
2018-05-07T19:23:16.474Z,80.50
2018-05-07T19:25:44.038Z,80.10
2018-05-07T19:28:12.272Z,84.30
2018-05-07T19:30:39.806Z,83.70
2018-05-07T19:33:07.352Z,84.80
2018-05-07T19:35:34.869Z,83.70
2018-05-07T19:38:03.197Z,83.50
2018-05-07T19:40:30.761Z,83.50
2018-05-07T19:42:58.284Z,85.10
2018-05-07T19:45:25.810Z,85.20
2018-05-07T19:47:53.439Z,85.70
2018-05-07T19:50:20.972Z,84.10
2018-05-07T19:52:48.507Z,82.60
2018-05-07T19:55:16.819Z,86.30
2018-05-07T19:57:44.347Z,86.40
2018-05-07T20:00:11.982Z,90.90
2018-05-07T20:02:39.508Z,87.80
2018-05-07T20:05:07.032Z,87.60
2018-05-07T20:07:34.592Z,89.30
2018-05-07T20:10:02.141Z,90.70
2018-05-07T20:12:29.678Z,90.90
2018-05-07T20:14:57.199Z,91.50
2018-05-07T20:17:24.759Z,91.20
2018-05-07T20:19:52.374Z,90.20
2018-05-07T20:22:19.889Z,90.10
2018-05-07T20:24:47.403Z,91.80
2018-05-07T20:27:14.928Z,92.20
2018-05-07T20:29:42.470Z,92.60
2018-05-07T20:32:10.006Z,92.50
2018-05-07T20:34:37.526Z,93.70
2018-05-07T20:37:05.073Z,93.30
2018-05-07T20:39:32.621Z,93.20
2018-05-07T20:42:00.951Z,95.10
2018-05-07T20:44:28.547Z,95.00
2018-05-07T20:46:56.101Z,93.90
2018-05-07T20:49:23.647Z,95.20
2018-05-07T20:51:51.168Z,95.00
2018-05-07T20:54:19.454Z,95.60
2018-05-07T20:56:47.006Z,95.60
2018-05-07T20:59:14.578Z,97.60
2018-05-07T21:01:42.147Z,97.20
2018-05-07T21:04:09.695Z,97.10
2018-05-07T21:06:37.209Z,97.60
2018-05-07T21:09:04.777Z,97.40
2018-05-07T21:11:32.319Z,96.80
2018-05-07T21:13:59.868Z,95.60
2018-05-07T21:16:28.078Z,95.90
2018-05-07T21:18:56.383Z,95.90
2018-05-07T21:21:23.940Z,95.90
2018-05-07T21:23:51.463Z,95.40
2018-05-07T21:26:19.012Z,96.50
2018-05-07T21:28:46.557Z,96.90
2018-05-07T21:31:14.108Z,96.70
2018-05-07T21:33:41.660Z,96.10
2018-05-07T21:36:09.186Z,95.90
2018-05-07T21:38:37.475Z,95.50
2018-05-07T21:41:05.038Z,95.50
2018-05-07T21:43:32.567Z,95.30
2018-05-07T21:46:00.857Z,96.00
2018-05-07T21:48:29.169Z,95.70
2018-05-07T21:50:56.687Z,95.70
2018-05-07T21:53:24.235Z,96.20
2018-05-07T21:55:52.548Z,96.60
2018-05-07T21:58:20.104Z,96.60
2018-05-07T22:00:47.621Z,96.90
2018-05-07T22:03:15.173Z,97.80
2018-05-07T22:05:42.731Z,98.30
2018-05-07T22:08:10.279Z,97.80
2018-05-07T22:10:37.820Z,98.10
2018-05-07T22:13:05.330Z,98.60
2018-05-07T22:15:32.955Z,99.50
2018-05-07T22:18:00.429Z,98.00
2018-05-07T22:20:27.967Z,98.10
2018-05-07T22:22:55.482Z,99.30
2018-05-07T22:25:23.754Z,98.50
2018-05-07T22:27:52.063Z,98.20
2018-05-07T22:30:19.619Z,98.10
2018-05-07T22:32:47.167Z,98.70
2018-05-07T22:35:14.691Z,99.00
2018-05-07T22:37:42.995Z,99.80
2018-05-07T22:40:10.540Z,99.80
2018-05-07T22:42:39.532Z,99.90
2018-05-07T22:45:07.066Z,99.90
2018-05-07T22:47:34.583Z,99.90
2018-05-07T22:50:02.122Z,99.90
2018-05-07T22:52:29.635Z,99.90
2018-05-07T22:55:18.049Z,99.40
2018-05-07T22:57:45.807Z,99.80
2018-05-07T23:00:14.168Z,99.30
2018-05-07T23:02:41.719Z,99.00
2018-05-07T23:05:09.263Z,99.00
2018-05-07T23:07:36.815Z,98.80
2018-05-07T23:10:04.354Z,99.90
2018-05-07T23:12:31.900Z,99.80
2018-05-07T23:14:59.425Z,98.20
2018-05-07T23:17:26.939Z,99.90
2018-05-07T23:19:54.506Z,99.70
2018-05-07T23:22:22.027Z,99.70
2018-05-07T23:24:50.231Z,99.90
2018-05-07T23:27:17.757Z,99.10
2018-05-07T23:29:45.304Z,99.30
2018-05-07T23:32:12.864Z,99.10
2018-05-07T23:34:40.415Z,98.80
2018-05-07T23:37:07.959Z,99.20
2018-05-07T23:39:35.518Z,99.00
2018-05-07T23:42:03.024Z,99.90
2018-05-07T23:44:30.550Z,99.90
2018-05-07T23:46:58.064Z,99.90
2018-05-07T23:49:27.118Z,99.90
2018-05-07T23:51:54.651Z,99.90
2018-05-07T23:54:22.162Z,99.90
2018-05-07T23:56:49.699Z,99.90
2018-05-07T23:59:17.249Z,99.90
